createdAt,value
2023-03-27T00:02:51.299Z,3.52
2023-03-27T00:07:58.385Z,3.16
2023-03-27T00:13:05.729Z,2.65
2023-03-27T00:18:12.876Z,2.50
2023-03-27T00:23:20.283Z,3.18
2023-03-27T00:28:27.488Z,4.93
2023-03-27T00:33:34.911Z,5.07
2023-03-27T00:38:42.232Z,5.50
2023-03-27T00:43:49.671Z,6.20
2023-03-27T00:48:56.811Z,5.84
2023-03-27T00:54:04.173Z,5.45
2023-03-27T00:59:11.476Z,5.52
2023-03-27T01:04:18.912Z,5.76
2023-03-27T01:09:26.255Z,5.47
2023-03-27T01:14:33.654Z,5.55
2023-03-27T01:19:40.941Z,5.05
2023-03-27T01:24:48.206Z,4.69
2023-03-27T01:29:55.495Z,5.32
2023-03-27T01:35:03.708Z,5.09
2023-03-27T01:40:09.685Z,4.80
2023-03-27T01:45:17.092Z,4.78
2023-03-27T01:50:24.299Z,4.33
2023-03-27T01:55:31.717Z,4.56
2023-03-27T02:00:51.636Z,4.85
2023-03-27T02:05:45.833Z,4.84
2023-03-27T02:10:53.098Z,4.58
2023-03-27T02:16:00.614Z,4.31
2023-03-27T02:21:07.925Z,4.24
2023-03-27T02:26:15.281Z,4.19
2023-03-27T02:31:31.820Z,7.80
2023-03-27T02:36:29.639Z,6.69
2023-03-27T02:41:36.904Z,6.06
2023-03-27T02:46:44.429Z,5.86
2023-03-27T02:51:54.323Z,5.47
2023-03-27T02:57:01.803Z,5.21
2023-03-27T03:02:08.991Z,5.83
2023-03-27T03:07:16.405Z,7.35
2023-03-27T03:12:23.691Z,5.00
2023-03-27T03:17:31.149Z,4.91
2023-03-27T03:22:38.386Z,5.04
2023-03-27T03:27:45.834Z,9.43
2023-03-27T03:32:53.032Z,11.28
2023-03-27T03:38:00.437Z,7.45
2023-03-27T03:43:07.636Z,6.08
2023-03-27T03:48:15.299Z,7.03
2023-03-27T03:53:22.617Z,5.81
2023-03-27T03:58:34.180Z,5.60
2023-03-27T04:03:36.800Z,5.34
2023-03-27T04:08:44.324Z,5.15
2023-03-27T04:13:51.624Z,6.08
2023-03-27T04:18:59.159Z,4.74
2023-03-27T04:24:06.462Z,4.77
2023-03-27T04:29:14.966Z,4.65
2023-03-27T04:34:22.274Z,4.16
2023-03-27T04:39:29.644Z,4.14
2023-03-27T04:44:36.992Z,4.26
2023-03-27T04:49:44.348Z,5.41
2023-03-27T04:54:51.531Z,5.94
2023-03-27T04:59:59.205Z,6.45
2023-03-27T05:05:06.553Z,6.96
2023-03-27T05:10:14.110Z,7.63
2023-03-27T05:15:21.306Z,7.77
2023-03-27T05:20:28.724Z,7.45
2023-03-27T05:25:35.896Z,10.04
2023-03-27T05:30:43.369Z,9.22
2023-03-27T05:35:50.736Z,6.90
2023-03-27T05:40:58.189Z,8.09
2023-03-27T05:46:05.326Z,9.32
2023-03-27T05:51:12.634Z,9.51
2023-03-27T05:56:19.869Z,7.31
2023-03-27T06:01:27.189Z,7.19
2023-03-27T06:06:34.864Z,7.80
2023-03-27T06:11:42.180Z,8.14
2023-03-27T06:16:49.463Z,7.44
2023-03-27T06:21:56.875Z,4.80
2023-03-27T06:27:04.314Z,4.74
2023-03-27T06:32:11.860Z,4.11
2023-03-27T06:37:19.252Z,5.39
2023-03-27T06:42:27.048Z,4.30
2023-03-27T06:47:38.569Z,4.34
2023-03-27T06:52:41.256Z,4.74
2023-03-27T06:57:48.518Z,3.83
2023-03-27T07:02:56.012Z,3.56
2023-03-27T07:08:14.871Z,3.39
2023-03-27T07:13:10.780Z,2.62
2023-03-27T07:18:18.076Z,3.16
2023-03-27T07:23:25.407Z,3.39
2023-03-27T07:28:32.795Z,4.01
2023-03-27T07:33:40.172Z,3.72
2023-03-27T07:38:47.339Z,2.53
2023-03-27T07:43:54.707Z,2.31
2023-03-27T07:49:02.227Z,2.67
2023-03-27T07:54:09.606Z,2.40
2023-03-27T07:59:16.859Z,2.30
2023-03-27T08:04:24.293Z,2.30
2023-03-27T08:09:31.359Z,2.03
2023-03-27T08:14:38.712Z,2.31
2023-03-27T08:19:46.001Z,1.86
2023-03-27T08:24:53.426Z,2.11
2023-03-27T08:30:00.722Z,2.29
2023-03-27T08:35:09.350Z,2.08
2023-03-27T08:40:16.729Z,2.28
2023-03-27T08:45:24.249Z,2.38
2023-03-27T08:50:31.523Z,2.10
2023-03-27T08:55:38.755Z,2.19
2023-03-27T09:00:45.921Z,2.53
2023-03-27T09:05:53.197Z,2.15
2023-03-27T09:11:00.603Z,2.13
2023-03-27T09:16:08.016Z,2.09
2023-03-27T09:21:15.136Z,2.13
2023-03-27T09:26:22.518Z,2.37
2023-03-27T09:31:29.738Z,2.27
2023-03-27T09:36:36.962Z,2.20
2023-03-27T09:41:44.199Z,2.36
2023-03-27T09:46:51.560Z,2.25
2023-03-27T09:51:58.787Z,2.28
2023-03-27T09:57:06.290Z,2.55
2023-03-27T10:02:13.512Z,2.18
2023-03-27T10:07:20.857Z,2.15
2023-03-27T10:12:28.068Z,2.41
2023-03-27T10:17:35.539Z,2.31
2023-03-27T10:22:42.727Z,1.85
2023-03-27T10:27:50.095Z,2.10
2023-03-27T10:32:57.364Z,2.09
2023-03-27T10:38:04.684Z,1.87
2023-03-27T10:43:12.793Z,1.86
2023-03-27T10:48:19.882Z,1.81
2023-03-27T10:53:26.170Z,2.15
2023-03-27T10:58:33.428Z,2.23
2023-03-27T11:03:40.527Z,2.06
2023-03-27T11:08:47.877Z,1.91
2023-03-27T11:13:55.052Z,1.83
2023-03-27T11:19:02.349Z,1.90
2023-03-27T11:24:09.587Z,1.82
2023-03-27T11:29:16.905Z,1.72
2023-03-27T11:34:29.006Z,1.93
2023-03-27T11:39:31.024Z,1.98
2023-03-27T11:44:38.320Z,1.54
2023-03-27T11:49:45.955Z,1.79
2023-03-27T11:54:53.261Z,1.60
2023-03-27T12:00:00.590Z,1.73
2023-03-27T12:05:07.835Z,1.60
2023-03-27T12:10:15.106Z,1.52
2023-03-27T12:15:22.352Z,1.49
2023-03-27T12:20:29.641Z,1.49
2023-03-27T12:25:36.835Z,1.53
2023-03-27T12:30:44.113Z,1.75
2023-03-27T12:35:51.318Z,1.66
2023-03-27T12:40:58.770Z,1.67
2023-03-27T12:46:06.037Z,1.76
2023-03-27T12:51:12.650Z,1.62
2023-03-27T12:56:19.954Z,1.66
2023-03-27T13:01:27.271Z,1.59
2023-03-27T13:06:34.479Z,1.46
2023-03-27T13:11:41.803Z,1.79
2023-03-27T13:16:49.149Z,1.71
2023-03-27T13:21:56.524Z,1.85
2023-03-27T13:27:03.663Z,1.55
2023-03-27T13:32:12.135Z,1.61
2023-03-27T13:37:19.285Z,1.53
2023-03-27T13:42:22.030Z,1.49
2023-03-27T13:47:29.307Z,1.92
2023-03-27T13:52:36.736Z,1.78
2023-03-27T13:57:43.886Z,1.59
2023-03-27T14:02:51.512Z,1.41
2023-03-27T14:07:59.115Z,1.30
2023-03-27T14:13:06.578Z,1.42
2023-03-27T14:18:13.900Z,1.65
2023-03-27T14:23:21.423Z,1.77
2023-03-27T14:28:28.084Z,1.26
2023-03-27T14:33:35.543Z,1.51
2023-03-27T14:38:42.994Z,1.30
2023-03-27T14:43:50.348Z,1.30
2023-03-27T14:48:57.499Z,1.30
2023-03-27T14:54:04.777Z,1.33
2023-03-27T14:59:11.931Z,1.14
2023-03-27T15:04:22.020Z,1.35
2023-03-27T15:09:19.501Z,1.09
2023-03-27T15:14:26.875Z,1.08
2023-03-27T15:19:34.318Z,1.19
2023-03-27T15:24:41.760Z,1.12
2023-03-27T15:29:48.914Z,1.07
2023-03-27T15:34:56.376Z,1.25
2023-03-27T15:40:03.664Z,1.12
2023-03-27T15:45:11.159Z,1.11
2023-03-27T15:50:18.330Z,1.31
2023-03-27T15:55:25.757Z,1.37
2023-03-27T16:00:33.033Z,1.18
2023-03-27T16:05:40.446Z,1.29
2023-03-27T16:10:47.690Z,1.29
2023-03-27T16:15:55.352Z,1.28
2023-03-27T16:21:05.236Z,1.50
2023-03-27T16:26:09.498Z,1.30
2023-03-27T16:31:16.854Z,1.37
2023-03-27T16:36:24.129Z,1.56
2023-03-27T16:41:31.495Z,1.55
2023-03-27T16:46:40.246Z,1.40
2023-03-27T16:51:47.356Z,1.41
2023-03-27T16:56:55.101Z,1.79
2023-03-27T17:02:02.363Z,1.39
2023-03-27T17:07:09.798Z,1.73
2023-03-27T17:12:17.250Z,1.47
2023-03-27T17:17:24.650Z,2.29
2023-03-27T17:22:31.938Z,1.79
2023-03-27T17:27:39.298Z,6.78
2023-03-27T17:32:46.757Z,12.71
2023-03-27T17:37:54.231Z,1.67
2023-03-27T17:43:01.602Z,1.89
2023-03-27T17:48:09.213Z,1.67
2023-03-27T17:53:16.515Z,1.69
2023-03-27T17:58:23.898Z,2.29
2023-03-27T18:03:31.197Z,1.65
2023-03-27T18:08:38.625Z,1.63
2023-03-27T18:13:45.850Z,1.69
2023-03-27T18:18:53.217Z,1.69
2023-03-27T18:24:00.391Z,1.70
2023-03-27T18:29:07.817Z,1.58
2023-03-27T18:34:14.975Z,1.49
2023-03-27T18:39:22.555Z,1.50
2023-03-27T18:44:31.333Z,1.66
2023-03-27T18:49:38.916Z,1.46
2023-03-27T18:54:46.180Z,1.76
2023-03-27T18:59:53.716Z,1.53
2023-03-27T19:05:00.880Z,1.65
2023-03-27T19:10:08.268Z,1.70
2023-03-27T19:20:22.716Z,2.11
2023-03-27T19:25:30.069Z,1.84
2023-03-27T19:30:37.550Z,2.21
2023-03-27T19:35:44.724Z,2.50
2023-03-27T19:40:52.128Z,2.41
2023-03-27T19:46:14.086Z,2.73
2023-03-27T19:51:06.628Z,2.45
2023-03-27T19:56:14.486Z,2.18
2023-03-27T20:01:22.126Z,2.04
2023-03-27T20:06:29.359Z,1.92
2023-03-27T20:11:36.932Z,1.93
2023-03-27T20:16:44.085Z,1.87
2023-03-27T20:21:51.524Z,1.80
2023-03-27T20:26:59.053Z,1.93
2023-03-27T20:32:08.842Z,1.68
2023-03-27T20:37:13.527Z,1.85
2023-03-27T20:42:20.937Z,1.81
2023-03-27T20:47:28.345Z,1.83
2023-03-27T20:52:35.607Z,1.91
2023-03-27T20:57:42.936Z,1.83
2023-03-27T21:02:50.651Z,2.14
2023-03-27T21:07:57.874Z,2.74
2023-03-27T21:13:08.142Z,1.86
2023-03-27T21:18:05.500Z,1.82
2023-03-27T21:23:12.735Z,1.73
2023-03-27T21:28:20.036Z,1.75
2023-03-27T21:33:28.839Z,1.83
2023-03-27T21:38:35.147Z,1.64
2023-03-27T21:43:42.689Z,1.76
2023-03-27T21:48:49.950Z,1.75
2023-03-27T21:53:57.370Z,1.90
2023-03-27T21:59:04.834Z,1.87
2023-03-27T22:04:12.364Z,1.84
2023-03-27T22:09:19.715Z,1.57
2023-03-27T22:14:27.045Z,1.63
2023-03-27T22:19:36.073Z,1.54
2023-03-27T22:24:43.499Z,1.65
2023-03-27T22:29:50.898Z,1.79
2023-03-27T22:34:58.248Z,1.56
2023-03-27T22:40:05.462Z,1.71
2023-03-27T22:45:12.774Z,1.64
2023-03-27T22:50:20.183Z,1.77
2023-03-27T22:55:27.570Z,1.57
2023-03-27T23:00:34.865Z,1.53
2023-03-27T23:05:42.377Z,1.72
2023-03-27T23:10:49.667Z,1.67
2023-03-27T23:15:57.333Z,1.71
2023-03-27T23:21:04.373Z,1.69
2023-03-27T23:26:11.884Z,1.62
2023-03-27T23:31:19.464Z,1.60
2023-03-27T23:36:26.788Z,1.60
2023-03-27T23:41:34.045Z,1.61
2023-03-27T23:46:41.341Z,1.57
2023-03-27T23:51:48.697Z,1.53
2023-03-27T23:56:56.065Z,1.68
